Time;durP1;ratioP1;P1;durP2;ratioP2;P2;SDS_P1;SDS_P2;PMS_P1;PMS_P2;Temp;Humidity;BMP_temperature;BMP_pressure;BME280_temperature;BME280_humidity;BME280_pressure;Samples;Min_cycle;Max_cycle;Signal;HPM_P1;HPM_P2
2021/05/26 00:00:53;;;;;;;1.75;1.60;;;;;;;;;;5058706;28;20194;-80
2021/05/26 00:03:20;;;;;;;1.30;1.20;;;;;;;;;;5058268;28;20208;-81
2021/05/26 00:05:48;;;;;;;2.00;1.73;;;;;;;;;;5058645;28;20703;-81
2021/05/26 00:08:24;;;;;;;1.40;1.30;;;;;;;;;;5058254;28;20202;-81
2021/05/26 00:10:50;;;;;;;1.70;1.60;;;;;;;;;;5058766;28;20212;-80
2021/05/26 00:13:17;;;;;;;3.47;2.13;;;;;;;;;;5058242;28;20603;-80
2021/05/26 00:15:44;;;;;;;2.60;1.73;;;;;;;;;;5058200;28;20707;-80
2021/05/26 00:18:12;;;;;;;2.10;1.70;;;;;;;;;;5058051;28;20197;-81
2021/05/26 00:20:39;;;;;;;2.05;1.65;;;;;;;;;;5058560;28;20197;-80
2021/05/26 00:23:06;;;;;;;2.25;1.50;;;;;;;;;;5058138;28;20178;-81
2021/05/26 00:25:32;;;;;;;2.13;1.60;;;;;;;;;;5057753;28;20232;-80
2021/05/26 00:27:59;;;;;;;1.60;1.50;;;;;;;;;;5058096;28;20194;-81
2021/05/26 00:30:27;;;;;;;4.35;1.50;;;;;;;;;;5057883;28;20217;-80
2021/05/26 00:32:55;;;;;;;4.88;1.85;;;;;;;;;;5057895;28;20221;-81
2021/05/26 00:35:23;;;;;;;2.95;1.58;;;;;;;;;;5057164;28;20230;-81
2021/05/26 00:37:50;;;;;;;1.75;1.65;;;;;;;;;;5057880;28;20438;-81
2021/05/26 00:40:17;;;;;;;2.08;1.85;;;;;;;;;;5057466;28;20209;-81
2021/05/26 00:42:45;;;;;;;2.10;1.67;;;;;;;;;;5057896;28;20198;-81
2021/05/26 00:45:14;;;;;;;1.77;1.60;;;;;;;;;;5057763;28;20221;-81
2021/05/26 00:47:43;;;;;;;1.95;1.58;;;;;;;;;;5057999;28;20555;-81
2021/05/26 00:50:15;;;;;;;1.70;1.52;;;;;;;;;;5057230;28;20189;-81
2021/05/26 00:52:44;;;;;;;3.80;1.48;;;;;;;;;;5058031;28;20221;-81
2021/05/26 00:55:14;;;;;;;2.75;2.17;;;;;;;;;;5057350;28;20295;-80
2021/05/26 00:57:41;;;;;;;1.92;1.60;;;;;;;;;;5058340;28;20549;-81
2021/05/26 01:00:11;;;;;;;4.40;1.73;;;;;;;;;;5057946;28;20201;-80
2021/05/26 01:02:38;;;;;;;2.80;1.77;;;;;;;;;;5057545;28;20201;-80
2021/05/26 01:05:07;;;;;;;3.67;1.60;;;;;;;;;;5057126;28;20226;-81
2021/05/26 01:07:34;;;;;;;2.75;1.75;;;;;;;;;;5057562;28;20204;-81
2021/05/26 01:10:02;;;;;;;1.92;1.80;;;;;;;;;;5057319;28;20202;-81
2021/05/26 01:12:29;;;;;;;1.67;1.50;;;;;;;;;;5057105;28;20225;-80
2021/05/26 01:14:56;;;;;;;1.40;1.35;;;;;;;;;;5063931;22;20226;-80
2021/05/26 01:17:23;;;;;;;2.10;1.88;;;;;;;;;;5055361;28;20178;-81
2021/05/26 01:19:50;;;;;;;1.80;1.70;;;;;;;;;;5054522;28;20202;-80
2021/05/26 01:22:17;;;;;;;4.38;1.88;;;;;;;;;;5054813;28;20198;-80
2021/05/26 01:24:44;;;;;;;1.65;1.55;;;;;;;;;;5054608;28;20197;-81
2021/05/26 01:27:11;;;;;;;2.50;1.80;;;;;;;;;;5054618;28;20198;-81
2021/05/26 01:29:39;;;;;;;2.17;1.98;;;;;;;;;;5054863;28;20201;-81
2021/05/26 01:32:06;;;;;;;1.60;1.48;;;;;;;;;;5054649;28;20205;-81
2021/05/26 01:34:33;;;;;;;1.90;1.27;;;;;;;;;;5054536;28;20216;-80
2021/05/26 01:37:00;;;;;;;1.60;1.50;;;;;;;;;;5054112;28;20229;-81
2021/05/26 01:39:27;;;;;;;2.20;1.70;;;;;;;;;;5054155;28;20614;-81
2021/05/26 01:41:55;;;;;;;2.63;1.52;;;;;;;;;;5054803;28;20198;-81
2021/05/26 01:44:25;;;;;;;3.15;1.67;;;;;;;;;;5054225;28;20198;-81
2021/05/26 01:46:52;;;;;;;2.17;1.50;;;;;;;;;;5054324;28;20218;-80
2021/05/26 01:49:19;;;;;;;2.75;1.70;;;;;;;;;;5054164;28;20201;-81
2021/05/26 01:51:46;;;;;;;1.35;1.25;;;;;;;;;;5054416;28;20198;-81
2021/05/26 01:54:12;;;;;;;2.15;1.73;;;;;;;;;;5054363;28;20229;-81
2021/05/26 01:56:40;;;;;;;1.67;1.58;;;;;;;;;;5054336;28;20213;-81
2021/05/26 01:59:07;;;;;;;2.72;1.60;;;;;;;;;;5053472;28;20201;-81
2021/05/26 02:01:34;;;;;;;2.58;1.50;;;;;;;;;;5054440;28;20216;-80
2021/05/26 02:04:01;;;;;;;3.22;1.50;;;;;;;;;;5054027;28;20193;-81
2021/05/26 02:06:28;;;;;;;2.72;1.67;;;;;;;;;;5054346;28;20371;-81
2021/05/26 02:08:56;;;;;;;1.55;1.45;;;;;;;;;;5054130;28;20296;-81
2021/05/26 02:14:10;;;;;;;1.48;1.35;;;;;;;;;;5054880;28;20599;-81
2021/05/26 02:16:39;;;;;;;1.88;1.77;;;;;;;;;;5057962;28;20276;-81
2021/05/26 02:19:06;;;;;;;3.25;1.85;;;;;;;;;;5058018;28;20251;-81
2021/05/26 02:21:33;;;;;;;4.63;2.03;;;;;;;;;;5057773;28;20572;-80
2021/05/26 02:23:59;;;;;;;1.52;1.17;;;;;;;;;;5057855;28;20197;-80
2021/05/26 02:26:26;;;;;;;2.13;1.63;;;;;;;;;;5058771;28;20580;-81
2021/05/26 02:28:55;;;;;;;1.00;1.00;;;;;;;;;;5058064;28;20211;-81
2021/05/26 02:31:22;;;;;;;1.42;1.30;;;;;;;;;;5058180;28;20209;-81
2021/05/26 02:33:49;;;;;;;1.55;1.40;;;;;;;;;;5058859;28;20582;-81
2021/05/26 02:36:16;;;;;;;1.48;1.38;;;;;;;;;;5057649;28;20245;-81
2021/05/26 02:38:43;;;;;;;2.72;1.42;;;;;;;;;;5057550;28;20213;-81
2021/05/26 02:41:10;;;;;;;2.33;1.45;;;;;;;;;;5058224;28;20209;-81
2021/05/26 02:43:38;;;;;;;1.77;1.55;;;;;;;;;;5057861;28;20229;-81
2021/05/26 02:46:05;;;;;;;3.35;1.50;;;;;;;;;;5057625;28;20218;-81
2021/05/26 02:48:33;;;;;;;2.55;1.25;;;;;;;;;;5057777;28;20675;-81
2021/05/26 02:50:59;;;;;;;1.60;1.40;;;;;;;;;;5057070;28;20202;-81
2021/05/26 02:53:26;;;;;;;1.23;1.13;;;;;;;;;;5056433;28;20667;-80
2021/05/26 02:55:53;;;;;;;1.40;1.30;;;;;;;;;;5056607;28;20232;-81
2021/05/26 02:58:20;;;;;;;1.45;1.20;;;;;;;;;;5057224;28;20206;-80
2021/05/26 03:00:47;;;;;;;1.48;1.38;;;;;;;;;;5057492;28;20208;-81
2021/05/26 03:03:13;;;;;;;1.65;1.40;;;;;;;;;;5057339;28;20215;-81
2021/05/26 03:05:41;;;;;;;1.48;1.38;;;;;;;;;;5056644;28;20228;-81
2021/05/26 03:08:08;;;;;;;2.53;1.30;;;;;;;;;;5057367;28;20206;-81
2021/05/26 03:10:35;;;;;;;1.05;1.05;;;;;;;;;;5057274;28;20655;-81
2021/05/26 03:13:02;;;;;;;1.40;1.30;;;;;;;;;;5057732;28;20594;-81
2021/05/26 03:15:29;;;;;;;1.40;1.30;;;;;;;;;;5057597;28;20225;-81
2021/05/26 03:17:55;;;;;;;1.73;1.55;;;;;;;;;;5056843;28;20205;-81
2021/05/26 03:20:22;;;;;;;2.80;1.10;;;;;;;;;;5057614;28;20213;-81
2021/05/26 03:22:50;;;;;;;1.77;1.25;;;;;;;;;;5056909;28;20213;-81
2021/05/26 03:25:17;;;;;;;1.63;1.15;;;;;;;;;;5056901;28;20232;-81
2021/05/26 03:27:44;;;;;;;1.40;1.30;;;;;;;;;;5057147;28;20354;-81
2021/05/26 03:30:15;;;;;;;1.30;1.20;;;;;;;;;;5056892;28;20198;-81
2021/05/26 03:32:43;;;;;;;1.35;1.25;;;;;;;;;;5046285;28;20281;-80
2021/05/26 03:35:12;;;;;;;2.70;1.40;;;;;;;;;;5036610;28;20699;-81
2021/05/26 03:37:39;;;;;;;1.95;1.20;;;;;;;;;;5036896;28;20206;-81
2021/05/26 03:40:11;;;;;;;2.55;1.50;;;;;;;;;;5037113;28;20213;-81
2021/05/26 03:42:38;;;;;;;1.10;1.10;;;;;;;;;;5037177;28;20214;-81
2021/05/26 03:45:07;;;;;;;1.40;1.17;;;;;;;;;;5036624;28;20218;-81
2021/05/26 03:47:34;;;;;;;2.97;1.60;;;;;;;;;;5036897;28;20209;-81
2021/05/26 03:50:01;;;;;;;3.97;1.80;;;;;;;;;;5036757;28;20582;-80
2021/05/26 03:52:28;;;;;;;1.75;1.30;;;;;;;;;;5036665;28;20213;-81
2021/05/26 03:54:54;;;;;;;2.28;1.70;;;;;;;;;;5036445;28;20230;-81
2021/05/26 03:57:22;;;;;;;2.30;1.70;;;;;;;;;;5036202;28;20554;-81
2021/05/26 03:59:49;;;;;;;1.33;1.20;;;;;;;;;;5036043;28;20201;-81
2021/05/26 04:02:16;;;;;;;1.95;1.60;;;;;;;;;;5036384;28;20206;-80
2021/05/26 04:04:43;;;;;;;3.15;1.90;;;;;;;;;;5036262;28;20198;-81
2021/05/26 04:07:10;;;;;;;1.60;1.50;;;;;;;;;;5036350;28;20317;-81
2021/05/26 04:09:36;;;;;;;1.30;1.25;;;;;;;;;;5035924;28;20209;-81
2021/05/26 04:12:04;;;;;;;4.57;1.73;;;;;;;;;;5036842;28;20203;-80
2021/05/26 04:14:31;;;;;;;3.35;1.40;;;;;;;;;;5036156;28;20225;-80
2021/05/26 04:16:58;;;;;;;3.00;1.70;;;;;;;;;;5035981;28;20233;-81
2021/05/26 04:19:25;;;;;;;1.60;1.50;;;;;;;;;;5036123;28;20406;-80
2021/05/26 04:21:52;;;;;;;3.65;1.85;;;;;;;;;;5035911;28;20214;-81
2021/05/26 04:24:18;;;;;;;3.13;1.75;;;;;;;;;;5036179;28;20198;-81
2021/05/26 04:26:45;;;;;;;3.20;1.77;;;;;;;;;;5035832;28;20226;-81
2021/05/26 04:29:12;;;;;;;2.78;2.10;;;;;;;;;;5036009;28;20202;-81
2021/05/26 04:31:40;;;;;;;2.20;1.73;;;;;;;;;;5035457;28;20264;-80
2021/05/26 04:34:07;;;;;;;2.03;1.83;;;;;;;;;;5035801;28;20602;-80
2021/05/26 04:36:34;;;;;;;4.00;1.52;;;;;;;;;;5035295;28;20237;-80
2021/05/26 04:39:00;;;;;;;2.50;1.70;;;;;;;;;;5035472;28;20198;-80
2021/05/26 04:41:27;;;;;;;2.20;1.77;;;;;;;;;;5035908;28;20574;-80
2021/05/26 04:43:54;;;;;;;1.77;1.58;;;;;;;;;;5035631;28;20202;-81
2021/05/26 04:46:21;;;;;;;2.70;1.77;;;;;;;;;;5035905;28;20218;-80
2021/05/26 04:48:49;;;;;;;3.75;2.35;;;;;;;;;;5035358;28;20205;-81
2021/05/26 04:51:16;;;;;;;5.07;1.70;;;;;;;;;;5038057;28;20201;-80
2021/05/26 04:53:42;;;;;;;2.25;1.60;;;;;;;;;;5036365;28;20222;-80
2021/05/26 04:56:10;;;;;;;3.60;2.13;;;;;;;;;;5036361;28;20237;-80
2021/05/26 04:58:37;;;;;;;1.92;1.42;;;;;;;;;;5036802;28;20274;-81
2021/05/26 05:01:04;;;;;;;3.20;1.88;;;;;;;;;;5035865;28;20557;-81
2021/05/26 05:03:30;;;;;;;2.85;1.88;;;;;;;;;;5035800;28;20629;-80
2021/05/26 05:05:58;;;;;;;2.33;1.40;;;;;;;;;;5035705;28;20233;-80
2021/05/26 05:08:25;;;;;;;1.73;1.58;;;;;;;;;;5035034;28;20209;-80
2021/05/26 05:10:54;;;;;;;1.48;1.38;;;;;;;;;;5036099;28;20209;-81
2021/05/26 05:13:21;;;;;;;1.35;1.30;;;;;;;;;;5036045;28;20182;-82
2021/05/26 05:15:48;;;;;;;2.78;1.50;;;;;;;;;;5035280;28;20241;-80
2021/05/26 05:18:14;;;;;;;2.10;1.30;;;;;;;;;;5035730;28;20206;-81
2021/05/26 05:20:41;;;;;;;3.63;1.85;;;;;;;;;;5035447;28;20187;-81
2021/05/26 05:23:09;;;;;;;1.77;1.67;;;;;;;;;;5034991;28;20210;-81
2021/05/26 05:25:36;;;;;;;2.00;1.70;;;;;;;;;;5035059;28;20240;-83
2021/05/26 05:28:05;;;;;;;3.83;1.42;;;;;;;;;;5034591;28;20270;-81
2021/05/26 05:30:32;;;;;;;1.70;1.40;;;;;;;;;;5035385;28;20201;-80
2021/05/26 05:32:59;;;;;;;1.60;1.50;;;;;;;;;;5034823;28;20801;-82
2021/05/26 05:35:26;;;;;;;2.90;1.33;;;;;;;;;;5034736;28;20240;-81
2021/05/26 05:37:53;;;;;;;2.05;1.40;;;;;;;;;;5034935;28;20202;-81
2021/05/26 05:40:20;;;;;;;2.50;1.58;;;;;;;;;;5035490;28;20194;-81
2021/05/26 05:42:47;;;;;;;2.55;1.70;;;;;;;;;;5034653;28;20198;-81
2021/05/26 05:45:15;;;;;;;1.50;1.40;;;;;;;;;;5034632;28;20596;-81
2021/05/26 05:47:41;;;;;;;1.63;1.30;;;;;;;;;;5035144;28;20206;-81
2021/05/26 05:50:15;;;;;;;1.50;1.40;;;;;;;;;;5034006;28;20206;-81
2021/05/26 05:52:42;;;;;;;1.40;1.30;;;;;;;;;;5034954;28;20255;-81
2021/05/26 05:55:12;;;;;;;1.65;1.55;;;;;;;;;;5035167;28;20229;-81
2021/05/26 05:57:40;;;;;;;2.20;1.27;;;;;;;;;;5035068;28;20629;-81
2021/05/26 06:00:09;;;;;;;2.25;1.40;;;;;;;;;;5035118;28;20247;-82
2021/05/26 06:02:35;;;;;;;1.55;1.45;;;;;;;;;;5034370;28;20418;-81
2021/05/26 06:05:02;;;;;;;3.95;1.55;;;;;;;;;;5035309;28;20222;-81
2021/05/26 06:07:30;;;;;;;2.13;1.40;;;;;;;;;;5034800;28;20584;-82
2021/05/26 06:09:57;;;;;;;2.13;1.30;;;;;;;;;;5035177;28;20202;-82
2021/05/26 06:12:24;;;;;;;1.55;1.30;;;;;;;;;;5035513;28;20183;-82
2021/05/26 06:14:52;;;;;;;3.25;1.40;;;;;;;;;;5034982;28;20762;-82
2021/05/26 06:17:19;;;;;;;2.20;1.65;;;;;;;;;;5035154;28;20179;-82
2021/05/26 06:19:46;;;;;;;1.65;1.50;;;;;;;;;;5035197;28;20766;-82
2021/05/26 06:22:12;;;;;;;1.63;1.38;;;;;;;;;;5034794;28;20198;-82
2021/05/26 06:24:39;;;;;;;1.73;1.30;;;;;;;;;;5035306;28;20201;-83
2021/05/26 06:27:07;;;;;;;1.98;1.83;;;;;;;;;;5034809;28;20209;-81
2021/05/26 06:29:34;;;;;;;1.83;1.60;;;;;;;;;;5035557;28;20282;-82
2021/05/26 06:32:01;;;;;;;1.55;1.40;;;;;;;;;;5035204;28;20256;-82
2021/05/26 06:34:28;;;;;;;2.65;1.40;;;;;;;;;;5034660;28;20571;-82
2021/05/26 06:36:55;;;;;;;2.70;1.45;;;;;;;;;;5035278;28;20292;-82
2021/05/26 06:39:22;;;;;;;2.47;1.50;;;;;;;;;;5036236;28;20199;-82
2021/05/26 06:41:48;;;;;;;3.20;1.20;;;;;;;;;;5038314;28;20206;-82
2021/05/26 06:44:15;;;;;;;1.40;1.30;;;;;;;;;;5038105;28;20194;-81
2021/05/26 06:46:42;;;;;;;3.00;1.55;;;;;;;;;;5037424;28;20226;-81
2021/05/26 06:49:10;;;;;;;2.50;1.33;;;;;;;;;;5039430;28;20198;-81
2021/05/26 06:51:37;;;;;;;2.05;1.10;;;;;;;;;;5038697;28;20217;-81
2021/05/26 06:54:04;;;;;;;2.72;1.63;;;;;;;;;;5038560;28;20198;-81
2021/05/26 06:56:31;;;;;;;1.33;1.23;;;;;;;;;;5037777;28;20223;-82
2021/05/26 06:58:59;;;;;;;2.03;1.23;;;;;;;;;;5038084;28;20202;-82
2021/05/26 07:01:26;;;;;;;2.08;1.30;;;;;;;;;;5039696;28;20230;-83
2021/05/26 07:03:53;;;;;;;3.53;1.17;;;;;;;;;;5040645;28;20275;-83
2021/05/26 07:06:20;;;;;;;1.55;1.27;;;;;;;;;;5039573;28;20230;-83
2021/05/26 07:08:47;;;;;;;2.03;1.75;;;;;;;;;;5038109;28;20210;-83
2021/05/26 07:11:14;;;;;;;1.35;1.05;;;;;;;;;;5038401;28;20205;-82
2021/05/26 07:13:40;;;;;;;2.65;1.52;;;;;;;;;;5038244;28;20213;-83
2021/05/26 07:16:07;;;;;;;1.40;1.30;;;;;;;;;;5042073;28;20245;-85
2021/05/26 07:18:35;;;;;;;1.52;1.08;;;;;;;;;;5040392;28;20214;-83
2021/05/26 07:21:02;;;;;;;0.93;0.93;;;;;;;;;;5040751;28;20232;-82
2021/05/26 07:23:32;;;;;;;1.55;1.05;;;;;;;;;;5039973;28;20202;-83
2021/05/26 07:25:58;;;;;;;1.33;1.00;;;;;;;;;;5040342;28;20214;-83
2021/05/26 07:28:25;;;;;;;1.70;1.60;;;;;;;;;;5039963;28;20210;-82
2021/05/26 07:30:52;;;;;;;1.65;1.10;;;;;;;;;;5040436;28;20206;-82
2021/05/26 07:33:19;;;;;;;1.98;1.08;;;;;;;;;;5039653;28;20198;-83
2021/05/26 07:35:46;;;;;;;3.08;1.75;;;;;;;;;;5040267;28;20221;-83
2021/05/26 07:38:13;;;;;;;1.55;1.20;;;;;;;;;;5041520;28;20645;-83
2021/05/26 07:40:40;;;;;;;1.08;1.00;;;;;;;;;;5042236;28;20265;-83
2021/05/26 07:43:07;;;;;;;1.02;0.90;;;;;;;;;;5040846;28;20206;-83
2021/05/26 07:45:34;;;;;;;1.13;1.00;;;;;;;;;;5040007;28;20219;-83
2021/05/26 07:48:01;;;;;;;1.15;1.08;;;;;;;;;;5039758;28;20648;-83
2021/05/26 07:50:34;;;;;;;1.13;0.85;;;;;;;;;;5040227;28;20726;-83
2021/05/26 07:53:01;;;;;;;0.80;0.80;;;;;;;;;;5041428;28;20205;-83
2021/05/26 07:55:27;;;;;;;2.03;1.00;;;;;;;;;;5039662;28;20230;-83
2021/05/26 07:57:55;;;;;;;0.70;0.70;;;;;;;;;;5039043;28;20206;-83
2021/05/26 08:00:23;;;;;;;2.13;0.88;;;;;;;;;;5039877;28;20213;-83
2021/05/26 08:02:51;;;;;;;0.88;0.88;;;;;;;;;;5040227;28;20201;-83
2021/05/26 08:05:19;;;;;;;0.80;0.80;;;;;;;;;;5039508;28;20303;-83
2021/05/26 08:07:45;;;;;;;0.70;0.70;;;;;;;;;;5039232;28;20664;-82
2021/05/26 08:10:13;;;;;;;1.08;0.70;;;;;;;;;;5040320;28;20495;-82
2021/05/26 08:12:41;;;;;;;1.65;0.68;;;;;;;;;;5038972;28;20260;-82
2021/05/26 08:15:11;;;;;;;0.90;0.90;;;;;;;;;;5038591;28;20237;-83
2021/05/26 08:17:38;;;;;;;1.40;0.75;;;;;;;;;;5038667;28;20260;-82
2021/05/26 08:20:07;;;;;;;0.60;0.60;;;;;;;;;;5038782;28;20229;-82
2021/05/26 08:22:34;;;;;;;0.65;0.57;;;;;;;;;;5039289;28;20202;-83
2021/05/26 08:25:01;;;;;;;0.77;0.77;;;;;;;;;;5038124;28;20226;-83
2021/05/26 08:27:28;;;;;;;0.88;0.85;;;;;;;;;;5039006;28;20206;-83
2021/05/26 08:29:55;;;;;;;0.70;0.70;;;;;;;;;;5038198;28;20207;-83
2021/05/26 08:32:23;;;;;;;0.60;0.60;;;;;;;;;;5039223;28;20198;-83
2021/05/26 08:34:50;;;;;;;3.25;0.70;;;;;;;;;;5038555;28;20202;-83
2021/05/26 08:37:17;;;;;;;0.52;0.52;;;;;;;;;;5039047;28;20213;-83
2021/05/26 08:39:44;;;;;;;0.60;0.60;;;;;;;;;;5038803;28;20202;-82
2021/05/26 08:42:11;;;;;;;0.63;0.63;;;;;;;;;;5039619;28;20217;-83
2021/05/26 08:44:38;;;;;;;0.60;0.60;;;;;;;;;;5038686;28;20213;-83
2021/05/26 08:47:05;;;;;;;0.70;0.70;;;;;;;;;;5038855;28;20203;-83
2021/05/26 08:49:33;;;;;;;0.90;0.63;;;;;;;;;;5038347;28;20198;-83
2021/05/26 08:52:01;;;;;;;1.75;1.00;;;;;;;;;;5038526;28;20206;-83
2021/05/26 08:54:28;;;;;;;1.52;0.85;;;;;;;;;;5038353;28;20198;-83
2021/05/26 08:56:55;;;;;;;0.70;0.70;;;;;;;;;;5038631;28;20609;-83
2021/05/26 08:59:23;;;;;;;0.70;0.70;;;;;;;;;;5039151;28;20209;-83
2021/05/26 09:01:51;;;;;;;0.80;0.80;;;;;;;;;;5038615;28;20208;-83
2021/05/26 09:04:29;;;;;;;0.70;0.70;;;;;;;;;;5039281;28;20627;-84
2021/05/26 09:07:14;;;;;;;0.63;0.63;;;;;;;;;;5038218;28;20226;-83
2021/05/26 09:09:54;;;;;;;0.60;0.60;;;;;;;;;;5038512;28;20198;-83
2021/05/26 09:12:28;;;;;;;0.93;0.45;;;;;;;;;;5038105;28;20587;-83
2021/05/26 09:14:56;;;;;;;0.60;0.60;;;;;;;;;;5037837;28;20292;-83
2021/05/26 09:17:24;;;;;;;1.00;0.68;;;;;;;;;;5038352;28;20570;-83
2021/05/26 09:20:12;;;;;;;0.50;0.50;;;;;;;;;;5038660;28;20665;-83
2021/05/26 09:22:42;;;;;;;0.60;0.60;;;;;;;;;;5037870;28;20210;-83
2021/05/26 09:25:09;;;;;;;0.70;0.70;;;;;;;;;;5037491;28;20313;-83
2021/05/26 09:27:36;;;;;;;0.98;0.80;;;;;;;;;;5037751;28;20213;-83
2021/05/26 09:30:05;;;;;;;0.75;0.75;;;;;;;;;;5038004;28;20213;-83
2021/05/26 09:32:34;;;;;;;1.92;0.65;;;;;;;;;;5037272;28;20570;-83
2021/05/26 09:35:01;;;;;;;0.65;0.60;;;;;;;;;;5037337;28;20223;-83
2021/05/26 09:37:33;;;;;;;0.52;0.52;;;;;;;;;;5036673;28;20206;-83
2021/05/26 09:40:06;;;;;;;0.55;0.35;;;;;;;;;;5037912;28;20205;-83
2021/05/26 09:42:36;;;;;;;0.40;0.40;;;;;;;;;;5036818;28;20198;-83
2021/05/26 09:45:13;;;;;;;0.50;0.50;;;;;;;;;;5037236;28;20794;-83
2021/05/26 09:47:42;;;;;;;0.70;0.70;;;;;;;;;;5036566;28;20296;-83
2021/05/26 09:50:25;;;;;;;0.40;0.40;;;;;;;;;;5037086;28;20198;-83
2021/05/26 09:52:59;;;;;;;1.17;0.35;;;;;;;;;;5037218;28;20649;-83
2021/05/26 09:55:29;;;;;;;0.55;0.45;;;;;;;;;;5037219;28;20227;-83
2021/05/26 09:57:57;;;;;;;0.50;0.50;;;;;;;;;;5036445;28;20206;-83
2021/05/26 10:00:25;;;;;;;0.45;0.45;;;;;;;;;;5037485;28;20631;-83
2021/05/26 10:02:52;;;;;;;0.60;0.60;;;;;;;;;;5036645;28;20665;-83
2021/05/26 10:05:19;;;;;;;0.60;0.55;;;;;;;;;;5036848;28;20257;-83
2021/05/26 10:07:52;;;;;;;0.60;0.60;;;;;;;;;;5036375;28;20206;-83
2021/05/26 10:10:20;;;;;;;2.63;0.70;;;;;;;;;;5036817;28;20245;-82
2021/05/26 10:12:53;;;;;;;1.02;0.65;;;;;;;;;;5036982;28;20504;-83
2021/05/26 10:15:22;;;;;;;0.45;0.40;;;;;;;;;;5036540;28;20230;-83
2021/05/26 10:17:55;;;;;;;0.55;0.55;;;;;;;;;;5036563;28;20209;-83
2021/05/26 10:20:24;;;;;;;0.70;0.70;;;;;;;;;;5036505;28;20190;-83
2021/05/26 10:22:53;;;;;;;1.77;0.80;;;;;;;;;;5035787;28;20202;-83
2021/05/26 10:25:20;;;;;;;1.33;0.75;;;;;;;;;;5036734;28;20222;-83
2021/05/26 10:27:50;;;;;;;0.70;0.70;;;;;;;;;;5036480;28;20668;-83
2021/05/26 10:30:19;;;;;;;0.60;0.60;;;;;;;;;;5036767;28;20213;-83
2021/05/26 10:32:58;;;;;;;0.60;0.60;;;;;;;;;;5036743;28;20206;-83
2021/05/26 10:35:27;;;;;;;0.68;0.68;;;;;;;;;;5036725;28;20233;-82
2021/05/26 10:38:04;;;;;;;0.80;0.73;;;;;;;;;;5040105;28;20205;-83
2021/05/26 10:40:43;;;;;;;0.93;0.70;;;;;;;;;;5040564;28;20209;-83
2021/05/26 10:43:36;;;;;;;0.50;0.50;;;;;;;;;;5040264;28;20656;-83
2021/05/26 10:46:06;;;;;;;0.68;0.68;;;;;;;;;;5039900;28;20684;-83
2021/05/26 10:49:10;;;;;;;0.60;0.60;;;;;;;;;;5040739;28;20202;-83
2021/05/26 10:52:10;;;;;;;0.60;0.60;;;;;;;;;;5040182;28;20202;-82
2021/05/26 10:55:02;;;;;;;0.60;0.60;;;;;;;;;;5039994;28;20293;-83
2021/05/26 10:57:31;;;;;;;0.57;0.57;;;;;;;;;;5039729;28;20230;-82
2021/05/26 11:00:30;;;;;;;0.70;0.70;;;;;;;;;;5040017;28;20255;-82
2021/05/26 11:03:41;;;;;;;1.65;1.02;;;;;;;;;;5040242;28;20238;-81
2021/05/26 11:06:38;;;;;;;1.20;1.10;;;;;;;;;;5025433;28;20314;-83
2021/05/26 11:09:09;;;;;;;0.75;0.75;;;;;;;;;;5040329;28;20679;-83
2021/05/26 11:11:53;;;;;;;0.60;0.60;;;;;;;;;;5041093;28;20203;-82
2021/05/26 11:14:34;;;;;;;0.63;0.63;;;;;;;;;;5040545;28;20194;-83
2021/05/26 11:17:27;;;;;;;0.65;0.60;;;;;;;;;;5039643;28;20868;-82
2021/05/26 11:20:24;;;;;;;1.00;1.00;;;;;;;;;;5037966;28;20186;-83
2021/05/26 11:22:51;;;;;;;0.70;0.70;;;;;;;;;;4957843;29;20275;-83
2021/05/26 11:25:18;;;;;;;0.50;0.50;;;;;;;;;;5020559;28;20222;-83
2021/05/26 11:27:54;;;;;;;0.70;0.70;;;;;;;;;;5039709;28;20198;-83
2021/05/26 11:30:25;;;;;;;0.63;0.63;;;;;;;;;;5039633;28;20190;-83
2021/05/26 11:32:57;;;;;;;0.50;0.50;;;;;;;;;;5039068;28;20190;-82
2021/05/26 11:35:24;;;;;;;0.85;0.85;;;;;;;;;;5040148;28;20289;-83
2021/05/26 11:37:51;;;;;;;0.50;0.50;;;;;;;;;;5039473;28;20209;-83
2021/05/26 11:40:25;;;;;;;0.63;0.40;;;;;;;;;;5039304;28;20211;-82
2021/05/26 11:42:54;;;;;;;0.40;0.40;;;;;;;;;;5038692;28;20215;-82
2021/05/26 11:45:22;;;;;;;0.68;0.50;;;;;;;;;;5038797;28;20226;-83
2021/05/26 11:47:52;;;;;;;0.43;0.43;;;;;;;;;;5037585;28;20256;-83
2021/05/26 11:50:22;;;;;;;0.43;0.43;;;;;;;;;;5039435;28;20202;-83
2021/05/26 11:52:52;;;;;;;0.52;0.52;;;;;;;;;;5038702;28;20221;-84
2021/05/26 11:55:21;;;;;;;0.40;0.40;;;;;;;;;;5039069;28;20241;-82
2021/05/26 11:57:50;;;;;;;0.38;0.38;;;;;;;;;;5037992;28;20206;-83
2021/05/26 12:00:26;;;;;;;0.40;0.40;;;;;;;;;;5038833;28;20256;-83
2021/05/26 12:02:56;;;;;;;0.40;0.40;;;;;;;;;;5038652;28;20183;-83
2021/05/26 12:05:40;;;;;;;0.70;0.70;;;;;;;;;;5038232;28;20222;-82
2021/05/26 12:08:18;;;;;;;0.40;0.40;;;;;;;;;;5039066;28;20209;-83
2021/05/26 12:10:51;;;;;;;0.50;0.50;;;;;;;;;;5039448;28;20585;-83
2021/05/26 12:13:19;;;;;;;6.45;1.00;;;;;;;;;;5039261;28;20702;-83
2021/05/26 12:15:47;;;;;;;0.60;0.60;;;;;;;;;;5039004;28;20235;-83
2021/05/26 12:18:15;;;;;;;0.40;0.40;;;;;;;;;;5038574;28;20588;-82
2021/05/26 12:20:47;;;;;;;0.43;0.43;;;;;;;;;;5039023;28;20191;-83
2021/05/26 12:23:14;;;;;;;2.00;0.70;;;;;;;;;;5038951;28;20186;-83
2021/05/26 12:25:47;;;;;;;0.60;0.60;;;;;;;;;;5038894;28;20221;-83
2021/05/26 12:28:21;;;;;;;0.60;0.60;;;;;;;;;;5038584;28;20554;-83
2021/05/26 12:30:50;;;;;;;0.47;0.47;;;;;;;;;;5039274;28;20590;-83
2021/05/26 12:33:20;;;;;;;0.60;0.60;;;;;;;;;;5038470;28;20191;-83
2021/05/26 12:36:10;;;;;;;0.60;0.60;;;;;;;;;;5038690;28;20635;-82
2021/05/26 12:38:39;;;;;;;0.70;0.68;;;;;;;;;;5038409;28;20664;-83
2021/05/26 12:41:24;;;;;;;0.63;0.63;;;;;;;;;;5038978;28;20202;-81
2021/05/26 12:43:53;;;;;;;0.40;0.40;;;;;;;;;;5037966;28;20187;-83
2021/05/26 12:46:43;;;;;;;1.25;0.55;;;;;;;;;;5038175;28;20223;-82
2021/05/26 12:49:41;;;;;;;1.65;1.15;;;;;;;;;;5038723;28;20205;-82
2021/05/26 12:52:11;;;;;;;0.95;0.85;;;;;;;;;;5038149;28;20194;-82
2021/05/26 12:54:43;;;;;;;0.38;0.38;;;;;;;;;;5039047;28;20217;-82
2021/05/26 12:57:11;;;;;;;1.75;0.57;;;;;;;;;;5038089;28;20281;-83
2021/05/26 12:59:40;;;;;;;0.60;0.60;;;;;;;;;;5038024;28;20195;-83
2021/05/26 13:02:08;;;;;;;0.52;0.52;;;;;;;;;;5039482;28;20560;-82
2021/05/26 13:04:44;;;;;;;0.50;0.50;;;;;;;;;;5040154;28;20557;-83
2021/05/26 13:07:24;;;;;;;0.60;0.60;;;;;;;;;;5039871;28;20213;-83
2021/05/26 13:09:51;;;;;;;0.50;0.50;;;;;;;;;;5038759;28;20187;-83
2021/05/26 13:12:24;;;;;;;0.40;0.40;;;;;;;;;;5039298;28;20529;-83
2021/05/26 13:14:51;;;;;;;0.57;0.57;;;;;;;;;;5039107;28;20186;-83
2021/05/26 13:17:26;;;;;;;0.40;0.40;;;;;;;;;;5038991;28;20213;-83
2021/05/26 13:19:55;;;;;;;1.38;1.00;;;;;;;;;;5038697;28;20200;-83
2021/05/26 13:22:22;;;;;;;0.82;0.82;;;;;;;;;;5039213;28;20206;-83
2021/05/26 13:24:49;;;;;;;0.60;0.60;;;;;;;;;;5038924;28;20198;-82
2021/05/26 13:27:16;;;;;;;0.55;0.55;;;;;;;;;;5039188;28;20179;-83
2021/05/26 13:29:43;;;;;;;0.40;0.40;;;;;;;;;;5038593;28;20699;-83
2021/05/26 13:32:10;;;;;;;0.50;0.50;;;;;;;;;;5038158;28;20214;-83
2021/05/26 13:34:38;;;;;;;0.50;0.50;;;;;;;;;;5038016;28;20200;-83
2021/05/26 13:37:06;;;;;;;0.50;0.50;;;;;;;;;;5037546;28;20207;-83
2021/05/26 13:39:33;;;;;;;0.43;0.43;;;;;;;;;;5037516;28;20189;-83
2021/05/26 13:42:00;;;;;;;0.47;0.47;;;;;;;;;;5037023;28;20578;-83
2021/05/26 13:44:27;;;;;;;0.57;0.57;;;;;;;;;;5037137;28;20202;-83
2021/05/26 13:46:53;;;;;;;0.60;0.60;;;;;;;;;;5036917;28;20218;-83
2021/05/26 13:49:20;;;;;;;0.43;0.43;;;;;;;;;;5036857;28;20206;-83
2021/05/26 13:51:47;;;;;;;0.52;0.50;;;;;;;;;;5037437;28;20198;-83
2021/05/26 13:54:15;;;;;;;0.65;0.65;;;;;;;;;;5036989;28;20556;-83
2021/05/26 13:56:42;;;;;;;0.40;0.40;;;;;;;;;;5037151;28;20237;-84
2021/05/26 13:59:09;;;;;;;0.40;0.40;;;;;;;;;;5037321;28;20194;-84
2021/05/26 14:01:36;;;;;;;0.45;0.45;;;;;;;;;;5036818;28;20657;-82
2021/05/26 14:04:03;;;;;;;0.63;0.60;;;;;;;;;;5036823;28;20245;-83
2021/05/26 14:06:30;;;;;;;0.63;0.63;;;;;;;;;;5036748;28;20218;-84
2021/05/26 14:08:57;;;;;;;0.70;0.70;;;;;;;;;;5036912;28;20198;-84
2021/05/26 14:11:25;;;;;;;1.13;0.73;;;;;;;;;;5036336;28;20744;-83
2021/05/26 14:13:53;;;;;;;0.57;0.57;;;;;;;;;;5036712;28;20210;-83
2021/05/26 14:16:19;;;;;;;0.70;0.70;;;;;;;;;;5036562;28;20329;-84
2021/05/26 14:18:46;;;;;;;0.80;0.80;;;;;;;;;;5036772;28;20226;-83
2021/05/26 14:21:13;;;;;;;0.68;0.68;;;;;;;;;;5036485;28;20210;-84
2021/05/26 14:23:40;;;;;;;0.65;0.65;;;;;;;;;;5035284;28;20202;-84
2021/05/26 14:26:07;;;;;;;1.27;1.17;;;;;;;;;;5035206;28;20229;-83
2021/05/26 14:28:34;;;;;;;0.80;0.80;;;;;;;;;;5036287;28;20206;-83
2021/05/26 14:31:01;;;;;;;0.70;0.70;;;;;;;;;;5036654;28;20213;-84
2021/05/26 14:33:28;;;;;;;0.77;0.77;;;;;;;;;;5036188;28;20248;-83
2021/05/26 14:35:56;;;;;;;1.10;1.10;;;;;;;;;;5035671;28;20218;-83
2021/05/26 14:38:31;;;;;;;0.90;0.90;;;;;;;;;;5036888;28;20230;-83
2021/05/26 14:40:59;;;;;;;0.75;0.75;;;;;;;;;;5036056;28;20202;-82
2021/05/26 14:43:26;;;;;;;1.00;1.00;;;;;;;;;;5036000;28;20209;-82
2021/05/26 14:45:55;;;;;;;1.30;1.30;;;;;;;;;;5036249;28;20280;-83
2021/05/26 14:48:22;;;;;;;1.05;0.98;;;;;;;;;;5036826;28;20256;-82
2021/05/26 14:50:49;;;;;;;1.52;1.08;;;;;;;;;;5035986;28;20202;-83
2021/05/26 14:53:16;;;;;;;0.80;0.80;;;;;;;;;;5035443;28;20664;-83
2021/05/26 14:55:43;;;;;;;0.80;0.80;;;;;;;;;;5036154;28;20233;-83
2021/05/26 14:58:10;;;;;;;1.50;1.40;;;;;;;;;;5036357;28;20218;-81